createdAt,value
2022-08-03T00:00:25.241Z,89307.78
2022-08-03T00:02:52.409Z,89314.66
2022-08-03T00:05:19.506Z,89315.00
2022-08-03T00:07:46.415Z,89312.09
2022-08-03T00:10:15.702Z,89316.63
2022-08-03T00:12:42.659Z,89313.19
2022-08-03T00:15:11.321Z,89311.94
2022-08-03T00:17:53.751Z,89305.25
2022-08-03T00:20:23.886Z,89322.03
2022-08-03T00:22:51.259Z,89315.72
2022-08-03T00:25:18.207Z,89320.94
2022-08-03T00:27:45.368Z,89315.34
2022-08-03T00:30:12.508Z,89314.25
2022-08-03T00:32:44.351Z,89324.38
2022-08-03T00:35:35.170Z,89321.47
2022-08-03T00:37:59.801Z,89321.13
2022-08-03T00:40:26.984Z,89326.53
2022-08-03T00:42:59.841Z,89316.78
2022-08-03T00:45:34.712Z,89313.91
2022-08-03T00:48:03.812Z,89312.81
2022-08-03T00:50:35.110Z,89313.16
2022-08-03T00:53:03.431Z,89312.09
2022-08-03T00:55:30.830Z,89313.53
2022-08-03T00:57:58.787Z,89304.50
2022-08-03T01:00:28.374Z,89311.72
2022-08-03T01:02:55.215Z,89313.16
2022-08-03T01:05:22.745Z,89311.00
2022-08-03T01:07:58.011Z,89318.38
2022-08-03T01:10:39.986Z,89309.56
2022-08-03T01:14:02.369Z,89320.38
2022-08-03T01:16:36.667Z,89312.41
2022-08-03T01:19:22.552Z,89308.44
2022-08-03T01:22:02.477Z,89316.38
2022-08-03T01:24:45.785Z,89315.66
2022-08-03T01:27:21.572Z,89313.47
2022-08-03T01:30:01.071Z,89316.91
2022-08-03T01:32:59.769Z,89318.88
2022-08-03T01:35:38.401Z,89321.41
2022-08-03T01:38:15.544Z,89324.84
2022-08-03T01:40:44.645Z,89313.47
2022-08-03T01:43:58.959Z,89312.03
2022-08-03T01:46:05.867Z,89311.25
2022-08-03T01:48:34.523Z,89317.22
2022-08-03T01:51:01.746Z,89313.06
2022-08-03T01:53:31.525Z,89314.88
2022-08-03T01:56:00.345Z,89316.66
2022-08-03T01:58:29.462Z,89312.69
2022-08-03T02:00:57.988Z,89314.84
2022-08-03T02:03:25.269Z,89314.81
2022-08-03T02:06:11.484Z,89319.13
2022-08-03T02:08:43.452Z,89313.72
2022-08-03T02:11:11.135Z,89315.50
2022-08-03T02:13:39.451Z,89320.19
2022-08-03T02:16:08.622Z,89311.72
2022-08-03T02:18:35.549Z,89316.56
2022-08-03T02:21:11.017Z,89313.66
2022-08-03T02:23:38.970Z,89313.66
2022-08-03T02:26:09.682Z,89315.84
2022-08-03T02:28:40.551Z,89313.47
2022-08-03T02:31:13.970Z,89313.28
2022-08-03T02:33:49.128Z,89319.75
2022-08-03T02:36:19.899Z,89313.63
2022-08-03T02:38:51.299Z,89313.09
2022-08-03T02:41:23.163Z,89315.78
2022-08-03T02:44:06.615Z,89307.50
2022-08-03T02:46:38.505Z,89314.34
2022-08-03T02:49:42.617Z,89312.34
2022-08-03T02:51:55.862Z,89294.25
2022-08-03T02:54:25.056Z,89307.06
2022-08-03T02:56:54.041Z,89313.41
2022-08-03T02:59:21.671Z,89302.38
2022-08-03T03:01:49.264Z,89310.31
2022-08-03T03:04:17.341Z,89299.84
2022-08-03T03:06:49.563Z,89301.16
2022-08-03T03:09:17.260Z,89315.03
2022-08-03T03:11:44.827Z,89314.16
2022-08-03T03:14:12.557Z,89314.88
2022-08-03T03:16:42.017Z,89318.63
2022-08-03T03:19:11.522Z,89310.03
2022-08-03T03:21:39.307Z,89322.66
2022-08-03T03:24:08.141Z,89318.72
2022-08-03T03:26:37.372Z,89324.13
2022-08-03T03:29:08.015Z,89333.16
2022-08-03T03:31:35.599Z,89331.75
2022-08-03T03:34:03.040Z,89332.13
2022-08-03T03:36:30.066Z,89334.53
2022-08-03T03:38:57.628Z,89333.63
2022-08-03T03:41:24.671Z,89339.63
2022-08-03T03:43:51.597Z,89342.16
2022-08-03T03:46:18.740Z,89345.59
2022-08-03T03:48:45.728Z,89348.19
2022-08-03T03:51:13.420Z,89348.56
2022-08-03T03:53:40.272Z,89354.34
2022-08-03T03:56:07.220Z,89344.97
2022-08-03T03:58:34.113Z,89346.97
2022-08-03T04:01:01.390Z,89349.84
2022-08-03T04:03:28.436Z,89350.25
2022-08-03T04:05:55.442Z,89336.16
2022-08-03T04:08:22.481Z,89337.94
2022-08-03T04:10:59.636Z,89344.97
2022-08-03T04:13:38.088Z,89335.56
2022-08-03T04:16:06.918Z,89337.56
2022-08-03T04:18:37.807Z,89351.81
2022-08-03T04:21:08.766Z,89344.56
2022-08-03T04:23:40.413Z,89346.72
2022-08-03T04:26:11.053Z,89352.88
2022-08-03T04:28:41.574Z,89352.28
2022-08-03T04:31:08.542Z,89356.56
2022-08-03T04:33:38.641Z,89361.25
2022-08-03T04:36:09.149Z,89358.66
2022-08-03T04:38:56.039Z,89359.34
2022-08-03T04:41:25.929Z,89354.19
2022-08-03T04:43:56.241Z,89350.34
2022-08-03T04:46:26.411Z,89355.38
2022-08-03T04:48:53.860Z,89359.81
2022-08-03T04:51:21.352Z,89364.09
2022-08-03T04:53:48.258Z,89357.66
2022-08-03T04:56:15.164Z,89363.53
2022-08-03T04:58:42.200Z,89365.66
2022-08-03T05:01:09.112Z,89365.03
2022-08-03T05:03:36.350Z,89364.19
2022-08-03T05:06:09.683Z,89372.44
2022-08-03T05:08:46.390Z,89367.88
2022-08-03T05:11:16.518Z,89367.56
2022-08-03T05:13:44.868Z,89366.44
2022-08-03T05:16:12.470Z,89377.56
2022-08-03T05:18:39.516Z,89373.66
2022-08-03T05:21:06.586Z,89369.56
2022-08-03T05:23:33.545Z,89384.97
2022-08-03T05:26:00.351Z,89382.88
2022-08-03T05:28:27.325Z,89386.53
2022-08-03T05:30:54.143Z,89380.78
2022-08-03T05:33:20.965Z,89387.00
2022-08-03T05:36:02.813Z,89390.81
2022-08-03T05:38:34.146Z,89386.19
2022-08-03T05:41:22.475Z,89391.94
2022-08-03T05:43:55.124Z,89385.59
2022-08-03T05:46:23.349Z,89385.34
2022-08-03T05:48:50.662Z,89387.25
2022-08-03T05:51:17.578Z,89396.47
2022-08-03T05:53:45.035Z,89392.88
2022-08-03T05:56:14.374Z,89393.66
2022-08-03T05:58:46.810Z,89393.25
2022-08-03T06:01:14.512Z,89381.38
2022-08-03T06:03:41.322Z,89392.59
2022-08-03T06:06:08.198Z,89396.50
2022-08-03T06:08:35.416Z,89390.03
2022-08-03T06:11:02.322Z,89395.94
2022-08-03T06:13:29.255Z,89393.66
2022-08-03T06:15:56.078Z,89384.47
2022-08-03T06:18:22.876Z,89385.50
2022-08-03T06:20:50.295Z,89375.59
2022-08-03T06:23:19.599Z,89382.38
2022-08-03T06:25:47.463Z,89384.25
2022-08-03T06:31:02.718Z,89389.16
2022-08-03T06:34:30.229Z,89382.63
2022-08-03T06:36:16.848Z,89380.34
2022-08-03T06:38:43.926Z,89380.47
2022-08-03T06:41:10.747Z,89379.63
2022-08-03T06:43:37.966Z,89378.78
2022-08-03T06:46:05.678Z,89388.53
2022-08-03T06:48:32.881Z,89385.53
2022-08-03T06:50:59.780Z,89380.63
2022-08-03T06:53:27.444Z,89371.78
2022-08-03T06:55:55.204Z,89385.47
2022-08-03T06:58:22.783Z,89390.78
2022-08-03T07:00:49.861Z,89376.19
2022-08-03T07:03:17.337Z,89378.22
2022-08-03T07:05:44.631Z,89369.31
2022-08-03T07:08:11.728Z,89379.03
2022-08-03T07:10:38.716Z,89377.88
2022-08-03T07:13:07.133Z,89387.91
2022-08-03T07:15:54.988Z,89385.25
2022-08-03T07:18:29.167Z,89381.22
2022-08-03T07:20:58.285Z,89377.28
2022-08-03T07:23:25.230Z,89380.72
2022-08-03T07:25:52.330Z,89379.41
2022-08-03T07:28:19.704Z,89383.94
2022-08-03T07:30:46.627Z,89370.44
2022-08-03T07:33:13.569Z,89377.28
2022-08-03T07:35:40.477Z,89378.25
2022-08-03T07:38:07.467Z,89392.97
2022-08-03T07:40:34.591Z,89385.53
2022-08-03T07:43:01.473Z,89386.69
2022-08-03T07:45:28.323Z,89381.75
2022-08-03T07:47:55.202Z,89390.25
2022-08-03T07:50:23.089Z,89387.28
2022-08-03T07:52:50.836Z,89389.50
2022-08-03T07:55:23.877Z,89378.53
2022-08-03T07:58:07.482Z,89384.94
2022-08-03T08:00:34.564Z,89381.84
2022-08-03T08:03:01.796Z,89375.50
2022-08-03T08:05:28.912Z,89377.03
2022-08-03T08:07:56.172Z,89392.78
2022-08-03T08:10:23.684Z,89385.38
2022-08-03T08:12:50.996Z,89386.22
2022-08-03T08:15:17.948Z,89389.72
2022-08-03T08:17:56.558Z,89392.31
2022-08-03T08:20:33.077Z,89391.06
2022-08-03T08:23:10.246Z,89397.59
2022-08-03T08:25:52.827Z,89386.97
2022-08-03T08:28:31.173Z,89385.72
2022-08-03T08:31:00.524Z,89395.13
2022-08-03T08:33:37.388Z,89399.81
2022-08-03T08:36:15.542Z,89386.97
2022-08-03T08:38:43.286Z,89385.56
2022-08-03T08:41:11.633Z,89390.00
2022-08-03T08:43:38.884Z,89389.53
2022-08-03T08:46:06.308Z,89379.06
2022-08-03T08:48:33.292Z,89380.81
2022-08-03T08:51:02.039Z,89384.25
2022-08-03T08:53:29.916Z,89390.09
2022-08-03T08:56:00.973Z,89386.28
2022-08-03T08:58:37.741Z,89390.31
2022-08-03T09:01:05.744Z,89388.00
2022-08-03T09:03:35.787Z,89388.47
2022-08-03T09:06:03.661Z,89392.41
2022-08-03T09:08:32.004Z,89387.63
2022-08-03T09:10:59.491Z,89381.00
2022-08-03T09:13:26.623Z,89386.72
2022-08-03T09:16:13.426Z,89400.72
2022-08-03T09:18:45.702Z,89383.97
2022-08-03T09:21:32.035Z,89387.78
2022-08-03T09:24:03.824Z,89392.41
2022-08-03T09:26:33.031Z,89393.84
2022-08-03T09:29:13.504Z,89396.47
2022-08-03T09:31:46.307Z,89388.22
2022-08-03T09:34:15.377Z,89398.41
2022-08-03T09:36:43.248Z,89394.22
2022-08-03T09:39:15.765Z,89385.16
2022-08-03T09:41:44.900Z,89383.69
2022-08-03T09:44:24.366Z,89387.03
2022-08-03T09:46:56.723Z,89375.63
2022-08-03T09:49:24.628Z,89374.22
2022-08-03T09:52:33.019Z,89390.63
2022-08-03T09:54:39.786Z,89392.88
2022-08-03T09:57:06.835Z,89382.47
2022-08-03T09:59:34.666Z,89382.84
2022-08-03T10:02:01.971Z,89380.94
2022-08-03T10:04:29.323Z,89381.50
2022-08-03T10:07:10.682Z,89374.69
2022-08-03T10:09:38.288Z,89370.97
2022-08-03T10:12:13.044Z,89386.28
2022-08-03T10:14:41.562Z,89381.44
2022-08-03T10:17:09.984Z,89379.53
2022-08-03T10:19:37.049Z,89381.22
2022-08-03T10:22:17.517Z,89370.94
2022-08-03T10:24:59.402Z,89375.41
2022-08-03T10:27:32.024Z,89371.72
2022-08-03T10:30:02.451Z,89372.31
2022-08-03T10:32:52.626Z,89368.38
2022-08-03T10:35:22.205Z,89362.47
2022-08-03T10:38:07.167Z,89363.28
2022-08-03T10:40:54.540Z,89366.66
2022-08-03T10:43:28.602Z,89357.91
2022-08-03T10:45:56.954Z,89357.31
2022-08-03T10:48:25.025Z,89349.59
2022-08-03T10:50:52.733Z,89351.38
2022-08-03T10:53:38.253Z,89356.97
2022-08-03T10:56:06.579Z,89349.19
2022-08-03T10:58:38.037Z,89353.56
2022-08-03T11:01:59.215Z,89344.72
2022-08-03T11:04:29.820Z,89339.66
2022-08-03T11:07:23.119Z,89342.28
2022-08-03T11:09:55.453Z,89338.38
2022-08-03T11:12:30.438Z,89333.59
2022-08-03T11:15:05.230Z,89330.31
2022-08-03T11:17:45.843Z,89324.94
2022-08-03T11:20:47.476Z,89328.66
2022-08-03T11:23:15.624Z,89324.16
2022-08-03T11:26:14.937Z,89329.28
2022-08-03T11:28:44.805Z,89332.66
2022-08-03T11:31:51.458Z,89321.84
2022-08-03T11:34:18.734Z,89315.94
2022-08-03T11:37:27.237Z,89312.94
2022-08-03T11:39:55.766Z,89310.72
2022-08-03T11:42:22.613Z,89311.63
2022-08-03T11:44:57.586Z,89317.25
2022-08-03T11:47:26.474Z,89313.47
2022-08-03T11:49:56.504Z,89308.78
2022-08-03T11:52:26.922Z,89308.06
2022-08-03T11:54:56.524Z,89305.22
2022-08-03T11:59:10.876Z,89297.56
2022-08-03T12:00:31.379Z,89303.56
2022-08-03T12:03:00.630Z,89300.59
2022-08-03T12:05:51.361Z,89299.19
2022-08-03T12:08:34.174Z,89303.84
2022-08-03T12:11:03.072Z,89299.19
2022-08-03T12:14:27.419Z,89302.22
2022-08-03T12:16:30.519Z,89300.84
2022-08-03T12:18:59.972Z,89292.84
2022-08-03T12:21:27.506Z,89292.09
2022-08-03T12:24:04.006Z,89290.16
2022-08-03T12:26:57.219Z,89279.84
2022-08-03T12:29:27.174Z,89281.97
2022-08-03T12:31:56.054Z,89275.25
2022-08-03T12:34:23.267Z,89281.88
2022-08-03T12:36:55.067Z,89280.47
2022-08-03T12:39:26.206Z,89276.69
2022-08-03T12:41:54.400Z,89274.34
2022-08-03T12:44:30.992Z,89273.41
2022-08-03T12:46:58.810Z,89282.38
2022-08-03T12:49:26.761Z,89277.16
2022-08-03T12:51:54.038Z,89269.31
2022-08-03T12:54:24.807Z,89267.69
2022-08-03T12:57:06.923Z,89269.22
2022-08-03T12:59:40.688Z,89265.50
2022-08-03T13:02:25.341Z,89260.84
2022-08-03T13:04:55.939Z,89264.59
2022-08-03T13:07:24.003Z,89259.06
2022-08-03T13:09:55.812Z,89262.56
2022-08-03T13:12:25.536Z,89265.63
2022-08-03T13:14:55.677Z,89255.59
2022-08-03T13:17:23.052Z,89254.56
2022-08-03T13:19:50.524Z,89255.56
2022-08-03T13:22:25.315Z,89257.47
2022-08-03T13:24:54.803Z,89258.91
2022-08-03T13:28:04.864Z,89262.56
2022-08-03T13:30:09.499Z,89254.28
2022-08-03T13:32:37.109Z,89254.28
2022-08-03T13:35:04.442Z,89253.69
2022-08-03T13:37:32.289Z,89248.69
2022-08-03T13:40:02.617Z,89248.50
2022-08-03T13:42:32.676Z,89248.91
2022-08-03T13:45:00.812Z,89248.72
2022-08-03T13:47:28.549Z,89241.44
2022-08-03T13:50:01.899Z,89240.56
2022-08-03T13:52:34.342Z,89240.47
2022-08-03T13:55:03.807Z,89240.41
2022-08-03T13:58:11.636Z,89239.91
2022-08-03T14:00:28.015Z,89243.53
2022-08-03T14:03:16.167Z,89239.53
2022-08-03T14:05:44.117Z,89242.59
2022-08-03T14:08:12.119Z,89242.66
2022-08-03T14:10:41.912Z,89234.94
2022-08-03T14:13:08.954Z,89247.25
2022-08-03T14:15:37.424Z,89245.19
2022-08-03T14:18:05.075Z,89241.66
2022-08-03T14:20:46.883Z,89240.97
2022-08-03T14:23:17.792Z,89236.88
2022-08-03T14:25:51.811Z,89236.34
2022-08-03T14:28:24.163Z,89232.47
2022-08-03T14:30:55.706Z,89232.38
2022-08-03T14:33:23.059Z,89229.44
2022-08-03T14:35:50.996Z,89229.75
2022-08-03T14:38:19.218Z,89225.34
2022-08-03T14:40:46.543Z,89224.44
2022-08-03T14:43:14.083Z,89225.75
2022-08-03T14:45:41.795Z,89224.44
2022-08-03T14:50:12.573Z,89223.00
2022-08-03T14:50:55.767Z,89220.53
2022-08-03T14:53:23.304Z,89217.19
2022-08-03T14:55:51.943Z,89222.69
2022-08-03T14:58:23.869Z,89216.47
2022-08-03T15:00:52.816Z,89217.06
2022-08-03T15:03:22.475Z,89225.34
2022-08-03T15:05:50.383Z,89217.50
2022-08-03T15:08:17.294Z,89205.78
2022-08-03T15:10:45.345Z,89219.53
2022-08-03T15:13:16.095Z,89206.28
2022-08-03T15:15:44.824Z,89212.91
2022-08-03T15:18:12.256Z,89211.16
2022-08-03T15:20:44.834Z,89205.91
2022-08-03T15:23:16.282Z,89209.56
2022-08-03T15:26:28.551Z,89208.44
2022-08-03T15:28:32.250Z,89200.47
2022-08-03T15:30:59.259Z,89199.44
2022-08-03T15:33:26.148Z,89194.44
2022-08-03T15:35:53.120Z,89197.56
2022-08-03T15:38:20.261Z,89205.00
2022-08-03T15:40:47.273Z,89201.09
2022-08-03T15:43:14.043Z,89198.44
2022-08-03T15:45:42.005Z,89200.97
2022-08-03T15:48:09.265Z,89201.50
2022-08-03T15:50:36.326Z,89205.34
2022-08-03T15:53:03.595Z,89216.16
2022-08-03T15:55:30.964Z,89211.38
2022-08-03T15:59:09.395Z,89218.91
2022-08-03T16:00:45.054Z,89221.56
2022-08-03T16:03:12.097Z,89218.28
2022-08-03T16:05:38.933Z,89220.00
2022-08-03T16:08:09.149Z,89231.78
2022-08-03T16:10:40.350Z,89229.91
2022-08-03T16:13:07.743Z,89234.97
2022-08-03T16:15:37.463Z,89235.31
2022-08-03T16:18:09.029Z,89235.63
2022-08-03T16:20:36.157Z,89236.25
2022-08-03T16:23:10.643Z,89237.72
2022-08-03T16:25:42.797Z,89244.91
2022-08-03T16:28:14.388Z,89254.59
2022-08-03T16:30:44.405Z,89256.16
2022-08-03T16:33:16.917Z,89260.47
2022-08-03T16:35:46.028Z,89263.25
2022-08-03T16:38:16.762Z,89259.78
2022-08-03T16:40:57.206Z,89257.84
2022-08-03T16:43:24.586Z,89268.72
2022-08-03T16:45:52.056Z,89270.97
2022-08-03T16:48:19.492Z,89278.13
2022-08-03T16:50:46.742Z,89276.19
2022-08-03T16:53:16.898Z,89277.03
2022-08-03T16:56:00.023Z,89279.28
2022-08-03T16:58:41.469Z,89280.91
2022-08-03T17:01:21.913Z,89278.00
2022-08-03T17:04:01.918Z,89291.34
2022-08-03T17:06:35.852Z,89275.13
2022-08-03T17:09:14.492Z,89282.25
2022-08-03T17:11:46.915Z,89285.19
2022-08-03T17:14:16.394Z,89289.78
2022-08-03T17:16:52.968Z,89284.50
2022-08-03T17:19:23.240Z,89289.44
2022-08-03T17:22:01.100Z,89290.47
2022-08-03T17:24:35.692Z,89294.13
2022-08-03T17:28:41.671Z,89290.16
2022-08-03T17:30:07.831Z,89289.06
2022-08-03T17:32:42.570Z,89299.00
2022-08-03T17:35:11.023Z,89306.09
2022-08-03T17:37:57.557Z,89312.28
2022-08-03T17:40:25.454Z,89307.53
2022-08-03T17:42:53.352Z,89302.66
2022-08-03T17:45:20.507Z,89313.00
2022-08-03T17:47:57.397Z,89311.91
2022-08-03T17:50:35.375Z,89314.94
2022-08-03T17:56:42.452Z,89318.44
2022-08-03T18:03:06.565Z,89325.09
2022-08-03T18:06:11.467Z,89324.13
2022-08-03T18:08:28.915Z,89331.06
2022-08-03T18:11:09.737Z,89336.84
2022-08-03T18:13:57.889Z,89336.59
2022-08-03T18:16:32.276Z,89343.22
2022-08-03T18:19:09.607Z,89347.81
2022-08-03T18:22:03.548Z,89337.91
2022-08-03T18:24:30.274Z,89341.38
2022-08-03T18:26:57.491Z,89348.56
2022-08-03T18:29:26.077Z,89349.44
2022-08-03T18:32:02.470Z,89355.78
2022-08-03T18:34:34.241Z,89346.31
2022-08-03T18:37:04.409Z,89349.47
2022-08-03T18:39:39.149Z,89361.41
2022-08-03T18:42:19.423Z,89358.22
2022-08-03T18:44:53.838Z,89363.81
2022-08-03T18:47:22.983Z,89362.09
2022-08-03T18:50:34.740Z,89355.03
2022-08-03T18:56:21.656Z,89361.50
2022-08-03T18:59:04.381Z,89357.88
2022-08-03T19:02:00.269Z,89363.06
2022-08-03T19:04:34.615Z,89370.66
2022-08-03T19:07:07.945Z,89372.53
2022-08-03T19:09:41.006Z,89374.25
2022-08-03T19:12:26.585Z,89382.88
2022-08-03T19:15:03.963Z,89379.09
2022-08-03T19:17:36.296Z,89381.69
2022-08-03T19:20:06.852Z,89377.81
2022-08-03T19:22:34.095Z,89372.53
2022-08-03T19:25:01.826Z,89366.91
2022-08-03T19:27:30.360Z,89370.19
2022-08-03T19:30:03.921Z,89369.47
2022-08-03T19:32:33.322Z,89370.50
2022-08-03T19:35:02.486Z,89374.19
2022-08-03T19:37:38.083Z,89379.38
2022-08-03T19:40:19.781Z,89385.19
2022-08-03T19:42:52.222Z,89380.19
2022-08-03T19:45:52.654Z,89384.06
2022-08-03T19:48:14.381Z,89378.75
2022-08-03T19:50:44.511Z,89376.38
2022-08-03T19:53:13.561Z,89376.09
2022-08-03T19:55:48.822Z,89380.41
2022-08-03T19:58:17.827Z,89383.81
2022-08-03T20:00:56.172Z,89384.81
2022-08-03T20:03:26.457Z,89396.00
2022-08-03T20:05:54.139Z,89387.94
2022-08-03T20:08:22.413Z,89384.34
2022-08-03T20:10:49.893Z,89389.47
2022-08-03T20:13:19.577Z,89384.59
2022-08-03T20:15:46.848Z,89385.59
2022-08-03T20:21:15.259Z,89394.34
2022-08-03T20:24:03.212Z,89402.03
2022-08-03T20:26:32.976Z,89401.56
2022-08-03T20:29:09.014Z,89400.66
2022-08-03T20:31:37.698Z,89401.06
2022-08-03T20:34:06.498Z,89393.06
2022-08-03T20:36:33.454Z,89391.94
2022-08-03T20:39:00.444Z,89398.91
2022-08-03T20:41:27.653Z,89400.28
2022-08-03T20:43:56.717Z,89394.28
2022-08-03T20:46:31.074Z,89398.47
2022-08-03T20:49:04.941Z,89398.28
2022-08-03T20:51:49.927Z,89398.53
2022-08-03T20:54:30.941Z,89407.28
2022-08-03T20:57:03.589Z,89410.41
2022-08-03T20:59:46.751Z,89405.38
2022-08-03T21:02:29.782Z,89416.03
2022-08-03T21:05:03.823Z,89410.25
2022-08-03T21:08:06.532Z,89407.53
2022-08-03T21:10:38.221Z,89409.63
2022-08-03T21:12:56.082Z,89317.13
2022-08-03T21:13:00.957Z,89360.78
2022-08-03T21:13:03.877Z,89392.88
2022-08-03T21:13:04.378Z,89311.94
2022-08-03T21:13:18.843Z,89402.59
2022-08-03T21:16:06.433Z,89403.88
2022-08-03T21:18:45.109Z,89399.72
2022-08-03T21:21:15.065Z,89393.78
2022-08-03T21:23:48.250Z,89403.28
2022-08-03T21:26:18.312Z,89394.97
2022-08-03T21:28:49.405Z,89396.25
2022-08-03T21:31:24.421Z,89398.56
2022-08-03T21:33:58.525Z,89405.50
2022-08-03T21:36:32.527Z,89396.88
2022-08-03T21:39:00.460Z,89396.53
2022-08-03T21:41:30.156Z,89402.22
2022-08-03T21:43:57.515Z,89396.03
2022-08-03T21:46:26.492Z,89392.69
2022-08-03T21:49:51.958Z,89396.69
2022-08-03T21:51:50.345Z,89399.31
2022-08-03T21:54:20.248Z,89401.16
2022-08-03T21:56:48.592Z,89400.28
2022-08-03T21:59:20.332Z,89407.16
2022-08-03T22:01:51.316Z,89405.56
2022-08-03T22:04:37.185Z,89411.38
2022-08-03T22:07:09.829Z,89399.59
2022-08-03T22:09:37.010Z,89404.38
2022-08-03T22:12:04.651Z,89403.88
2022-08-03T22:14:34.533Z,89405.31
2022-08-03T22:17:03.428Z,89415.31
2022-08-03T22:19:33.690Z,89414.25
2022-08-03T22:22:01.789Z,89420.06
2022-08-03T22:24:31.965Z,89408.47
2022-08-03T22:27:01.457Z,89408.00
2022-08-03T22:29:29.541Z,89411.03
2022-08-03T22:31:58.351Z,89410.50
2022-08-03T22:34:28.202Z,89422.50
2022-08-03T22:36:58.530Z,89415.13
2022-08-03T22:39:28.488Z,89415.69
2022-08-03T22:41:57.505Z,89417.31
2022-08-03T22:44:25.030Z,89418.28
2022-08-03T22:46:52.402Z,89418.78
2022-08-03T22:49:20.359Z,89415.00
2022-08-03T22:51:47.680Z,89417.88
2022-08-03T22:54:15.239Z,89416.84
2022-08-03T22:56:42.984Z,89417.91
2022-08-03T22:59:40.858Z,89421.91
2022-08-03T23:02:19.997Z,89431.34
2022-08-03T23:04:51.310Z,89413.28
2022-08-03T23:07:27.782Z,89408.59
2022-08-03T23:09:56.532Z,89408.25
2022-08-03T23:12:24.180Z,89408.25
2022-08-03T23:15:02.024Z,89407.00
2022-08-03T23:17:31.774Z,89406.25
2022-08-03T23:20:04.945Z,89416.63
2022-08-03T23:22:35.468Z,89413.34
2022-08-03T23:25:04.500Z,89419.53
2022-08-03T23:27:32.994Z,89419.94
2022-08-03T23:30:01.445Z,89420.97
2022-08-03T23:32:30.749Z,89428.78
2022-08-03T23:35:00.907Z,89421.03
2022-08-03T23:37:27.953Z,89428.28
2022-08-03T23:39:57.373Z,89417.44
2022-08-03T23:42:24.434Z,89411.84
2022-08-03T23:44:54.654Z,89408.44
2022-08-03T23:47:21.789Z,89420.72
2022-08-03T23:49:49.156Z,89419.31
2022-08-03T23:52:25.933Z,89426.94
2022-08-03T23:55:09.774Z,89417.34
2022-08-03T23:57:51.376Z,89422.22
